Flight Track Log - Related Links

Times and Time Zones

All times are in EDT time to prevent confusion due to time zone crossing. See the CNK274 flight status page for this flight to view local times or setup timezone preferences in your user account.

Time Position Orientation Groundspeed Altitude Reporting Facility
EDT Latitude Longitude Course Direction KTS MPH feet Rate Location/Type
Tue 06:27:23 PM 53.3167 -113.5833 160° South 160 184 3,900  Level Edmonton Center
Tue 06:28:23 PM 53.3333 -113.5333 61° Northeast 130 150 6,200 2,100 Climbing Edmonton Center
Tue 06:29:23 PM 53.3000 -113.5000 149° Southeast 140 161 8,100 1,900 Climbing Edmonton Center
Tue 06:30:23 PM 53.2667 -113.5000 180° South 170 196 10,000 1,800 Climbing Edmonton Center
Tue 06:31:23 PM 53.2167 -113.4833 169° South 170 196 11,700 1,700 Climbing Edmonton Center
Tue 06:32:00 PM 52.9371 -113.6576 180° South  Level Estimated
Tue 06:32:23 PM 53.1667 -113.5000 191° South 170 196 13,400  Level Edmonton Center
Tue 06:33:00 PM 52.8782 -113.6227 160° South  Level FlightAware Approximate
Tue 06:33:23 PM 53.1167 -113.4833 169° South 170 196 15,000  Level Edmonton Center
Tue 06:34:23 PM 53.0667 -113.5000 191° South 180 207 16,200 1,250 Climbing Edmonton Center
Tue 06:35:23 PM 53.0333 -113.5000 180° South 180 207 17,500 1,200 Climbing Edmonton Center
Tue 06:36:23 PM 52.9833 -113.5167 191° South 170 196 18,600 750 Climbing Edmonton Center
Tue 06:37:23 PM 52.9333 -113.5000 169° South 190 219 19,000 200 Climbing Edmonton Center
Tue 06:38:23 PM 52.8667 -113.5167 189° South 220 253 19,000  Level Edmonton Center
Tue 06:39:23 PM 52.7833 -113.5333 187° South 230 265 19,000  Level Edmonton Center
Tue 06:40:23 PM 52.7333 -113.5167 169° South 240 276 19,000  Level Edmonton Center
Tue 06:41:23 PM 52.6667 -113.5333 189° South 240 276 19,000  Level Edmonton Center
Tue 06:42:23 PM 52.6000 -113.5500 189° South 240 276 19,000  Level Edmonton Center
Tue 06:43:23 PM 52.5333 -113.5333 171° South 240 276 19,000  Level Edmonton Center
Tue 06:44:23 PM 52.4667 -113.5500 189° South 230 265 19,000  Level Edmonton Center
Tue 06:45:23 PM 52.4000 -113.5667 189° South 230 265 19,000  Level Edmonton Center
Tue 06:46:23 PM 52.3333 -113.5500 171° South 230 265 19,000  Level Edmonton Center
Tue 06:47:23 PM 52.2833 -113.5667 192° South 230 265 19,000  Level Edmonton Center
Tue 06:48:23 PM 52.2167 -113.5833 189° South 240 276 19,000  Level Edmonton Center
Tue 06:49:23 PM 52.1333 -113.6000 187° South 230 265 19,000 -550 Level Edmonton Center
Tue 06:50:23 PM 52.0667 -113.5833 171° South 250 288 17,900 -950 Descending Edmonton Center
Tue 06:51:23 PM 52.0000 -113.6000 189° South 260 299 17,100 -1,100 Descending Edmonton Center
Tue 06:52:23 PM 51.9167 -113.6000 180° South 270 311 15,700 -1,300 Descending Edmonton Center
Tue 06:53:23 PM 51.8500 -113.6167 189° South 270 311 14,500 -1,350 Descending Edmonton Center
Tue 06:54:23 PM 51.7667 -113.6333 187° South 270 311 13,000 -1,350 Descending Edmonton Center
Tue 06:55:23 PM 51.7000 -113.6667 197° South 270 311 11,800 -1,200 Descending Edmonton Center
Tue 06:56:23 PM 51.6167 -113.6833 187° South 270 311 10,600 -1,050 Descending Edmonton Center
Tue 06:57:23 PM 51.5500 -113.7500 212° Southwest 260 299 9,700 -900 Descending Edmonton Center
Tue 06:58:23 PM 51.5000 -113.8167 220° Southwest 250 288 8,800 -850 Descending Edmonton Center
Tue 06:59:23 PM 51.4333 -113.8833 212° Southwest 250 288 8,000 -650 Descending Edmonton Center
Tue 07:00:23 PM 51.3833 -113.9333 212° Southwest 240 276 7,500 -750 Descending Edmonton Center
Tue 07:01:23 PM 51.3333 -114.0000 220° Southwest 230 265 6,500 -500 Descending Edmonton Center
Tue 07:02:23 PM 51.2833 -114.0500 212° Southwest 180 207 6,500 -100 Level Edmonton Center
Tue 07:03:23 PM 51.2333 -114.0333 168° South 160 184 6,300 -550 Descending Edmonton Center
Tue 07:04:23 PM 51.1833 -114.0500 192° South 170 196 5,400 -900 Descending Edmonton Center
Tue 07:05:23 PM 51.1500 -114.0500 180° South 160 184 4,500 -600 Descending Edmonton Center
Tue 07:07:23 PM 51.0833 -114.0333 171° South 100 115 3,600 -450 Descending Edmonton Center

Login

Don't have an account? Register now (free) for customized features, flight alerts, and more!